Hilltop, Minnesota
Current Conditions -  °F | °C
As of 12:53 PM on Thursday 30 Oct 2014 (Local Time) from KMIC Reporting Station
Overcast Overcast  
Wind Chill: 44°   Ceiling: 5000
Heat Index: 47°   Visibility: 10mi
Dew Point: 36°   Wind: 7mph
Humidity: 66%   Direction: 360°N
Pressure: 30.1"   Gusts: NA
Location:  45.0516°N, 93.2549°W
Report Text: KMIC 301753Z 36006KT 10SM OVC050 08/02 A3010 RMK AO2 SLP200 T00830022 10083 20050 51014
Loading
Personal Weather Stations






























Interactive Weather Map
Tropical Storm Tracking
New forecast layout! Learn more

10-Day Weather Forecast

Advertisements
Track Severe Weather on mobile